Terminal Aerodrome Forecast
Issued by NWS Twin Cities, MN

Home | Current Version | Previous Version | Graphics & Text | Print | Product List | Glossary On
Versions: 1 2 3 4 5 6 7 8 9 10 11 12
513
FTUS43 KMPX 180520
TAFEAU
TAF
KEAU 180520Z 1806/1906 23009KT P6SM SKC
     FM181100 22005KT P6SM BKN150
     FM181500 23009KT P6SM SKC=

USA.gov is the U.S. government's official web portal to all federal, state and local government web resources and services.